Time;durP1;ratioP1;P1;durP2;ratioP2;P2;SDS_P1;SDS_P2;PMS_P1;PMS_P2;Temp;Humidity;BMP_temperature;BMP_pressure;BME280_temperature;BME280_humidity;BME280_pressure;Samples;Min_cycle;Max_cycle;Signal;HPM_P1;HPM_P2
2021/09/11 00:00:37;;;;;;;7.30;6.60;;;23.00;76.40;;;;;;10420033;28;20107;-57
2021/09/11 00:05:38;;;;;;;7.13;6.43;;;23.00;76.40;;;;;;10419589;28;20044;-57
2021/09/11 00:10:39;;;;;;;7.13;6.43;;;23.00;76.40;;;;;;10419460;28;20037;-57
2021/09/11 00:15:40;;;;;;;7.13;6.43;;;23.00;76.30;;;;;;10419528;28;20036;-57
2021/09/11 00:20:41;;;;;;;7.35;6.55;;;23.00;76.30;;;;;;10418628;28;20583;-57
2021/09/11 00:25:41;;;;;;;7.93;6.00;;;22.90;76.30;;;;;;10418825;28;20076;-57
2021/09/11 00:30:42;;;;;;;7.68;6.93;;;23.00;76.40;;;;;;10418523;28;20040;-57
2021/09/11 00:35:43;;;;;;;6.75;6.15;;;22.90;76.30;;;;;;10418626;28;20228;-58
2021/09/11 00:40:44;;;;;;;6.15;5.55;;;22.90;76.30;;;;;;10417887;28;20038;-57
2021/09/11 00:45:44;;;;;;;6.38;5.78;;;22.90;76.20;;;;;;10417971;28;20401;-57
2021/09/11 00:50:45;;;;;;;7.65;6.38;;;22.90;76.10;;;;;;10416604;28;20061;-57
2021/09/11 00:55:47;;;;;;;6.25;5.65;;;23.00;76.30;;;;;;10416549;28;20553;-57
2021/09/11 01:00:48;;;;;;;6.13;5.53;;;22.90;76.10;;;;;;10417570;28;20037;-57
2021/09/11 01:05:49;;;;;;;5.88;5.38;;;22.90;76.20;;;;;;10416866;28;20116;-57
2021/09/11 01:10:49;;;;;;;6.82;6.10;;;22.90;76.10;;;;;;10417115;28;20033;-57
2021/09/11 01:15:57;;;;;;;6.47;5.85;;;22.90;76.20;;;;;;10416698;28;20116;-57
2021/09/11 01:20:58;;;;;;;6.07;5.47;;;22.90;76.10;;;;;;10421988;28;20052;-57
2021/09/11 01:25:59;;;;;;;6.93;5.85;;;22.90;76.10;;;;;;10416372;28;20120;-57
2021/09/11 01:30:59;;;;;;;6.38;5.78;;;22.90;76.20;;;;;;10416489;28;20112;-56
2021/09/11 01:36:00;;;;;;;6.63;5.65;;;22.90;76.10;;;;;;10416187;28;20565;-57
2021/09/11 01:41:01;;;;;;;6.57;5.55;;;22.90;76.00;;;;;;10415729;28;20061;-57
2021/09/11 01:46:02;;;;;;;5.20;4.70;;;22.90;76.00;;;;;;10412253;28;20417;-57
2021/09/11 01:51:02;;;;;;;10.27;5.95;;;22.80;75.80;;;;;;10415699;28;20035;-57
2021/09/11 01:56:03;;;;;;;5.40;4.90;;;22.80;75.90;;;;;;10414220;28;20030;-57
2021/09/11 02:01:04;;;;;;;5.82;5.18;;;22.80;75.80;;;;;;10415342;28;20071;-57
2021/09/11 02:06:05;;;;;;;6.28;5.60;;;22.80;75.90;;;;;;10414707;28;20124;-57
2021/09/11 02:11:05;;;;;;;6.57;5.60;;;22.80;75.90;;;;;;10414718;28;20061;-56
2021/09/11 02:16:06;;;;;;;6.25;5.65;;;22.80;75.90;;;;;;10414758;28;20104;-57
2021/09/11 02:21:07;;;;;;;5.57;4.70;;;22.80;75.80;;;;;;10420044;28;20605;-57
2021/09/11 02:26:07;;;;;;;6.43;5.82;;;22.80;75.70;;;;;;10413187;28;20124;-57
2021/09/11 02:31:09;;;;;;;5.75;5.25;;;22.80;75.70;;;;;;10414417;28;20038;-57
2021/09/11 02:36:09;;;;;;;5.50;4.72;;;22.80;75.60;;;;;;10413047;28;20075;-57
2021/09/11 02:41:10;;;;;;;5.32;4.82;;;22.80;75.50;;;;;;10414024;28;20079;-57
2021/09/11 02:46:11;;;;;;;5.18;4.57;;;22.80;75.50;;;;;;10413868;28;20045;-57
2021/09/11 02:51:12;;;;;;;5.88;5.38;;;22.80;75.50;;;;;;10414145;28;20497;-57
2021/09/11 02:56:12;;;;;;;5.68;4.82;;;22.80;75.50;;;;;;10412980;28;20065;-57
2021/09/11 03:01:13;;;;;;;5.45;4.95;;;22.80;75.50;;;;;;10413431;28;20069;-56
2021/09/11 03:06:14;;;;;;;5.53;5.03;;;22.70;75.30;;;;;;10413730;28;20057;-57
2021/09/11 03:11:15;;;;;;;5.65;5.10;;;22.80;75.20;;;;;;10413769;28;20147;-57
2021/09/11 03:16:15;;;;;;;5.95;5.35;;;22.70;75.20;;;;;;10413693;28;20057;-57
2021/09/11 03:21:16;;;;;;;5.45;4.82;;;22.70;75.10;;;;;;10420995;28;20108;-57
2021/09/11 03:26:17;;;;;;;5.18;4.53;;;22.70;75.70;;;;;;10412919;28;20029;-57
2021/09/11 03:31:17;;;;;;;6.55;4.93;;;22.70;75.00;;;;;;10411504;28;20092;-57
2021/09/11 03:36:18;;;;;;;6.35;5.22;;;22.70;75.20;;;;;;10409944;28;20060;-57
2021/09/11 03:41:18;;;;;;;6.15;5.55;;;22.70;75.00;;;;;;10412267;28;20534;-57
2021/09/11 03:46:19;;;;;;;6.63;5.43;;;22.70;75.00;;;;;;10418952;28;20048;-57
2021/09/11 03:51:20;;;;;;;5.85;5.18;;;22.70;74.80;;;;;;10420190;28;20084;-57
2021/09/11 03:56:20;;;;;;;6.53;5.40;;;22.70;74.70;;;;;;10413537;28;20065;-57
2021/09/11 04:01:21;;;;;;;5.47;4.90;;;22.70;74.70;;;;;;10418651;28;20100;-57
2021/09/11 04:06:22;;;;;;;6.00;5.35;;;22.70;74.60;;;;;;10418279;28;20041;-57
2021/09/11 04:11:23;;;;;;;5.90;4.70;;;22.70;74.40;;;;;;10417508;28;20017;-57
2021/09/11 04:16:24;;;;;;;5.97;5.30;;;22.70;74.20;;;;;;10418549;28;20029;-57
2021/09/11 04:21:24;;;;;;;6.55;5.22;;;22.70;74.20;;;;;;10421556;28;20056;-57
2021/09/11 04:26:25;;;;;;;6.85;5.40;;;22.60;73.90;;;;;;10418054;28;20037;-56
2021/09/11 04:31:26;;;;;;;6.63;5.18;;;22.60;74.10;;;;;;10418100;28;20057;-57
2021/09/11 04:36:26;;;;;;;6.38;5.18;;;22.60;74.30;;;;;;10416464;28;20037;-57
2021/09/11 04:41:27;;;;;;;5.25;4.30;;;22.60;74.50;;;;;;10416344;28;20542;-57
2021/09/11 04:46:28;;;;;;;6.45;5.20;;;22.60;74.60;;;;;;10417643;28;20054;-57
2021/09/11 04:51:28;;;;;;;5.95;5.18;;;22.60;74.50;;;;;;10417809;28;20027;-56
2021/09/11 04:56:29;;;;;;;6.43;4.78;;;22.60;74.70;;;;;;10414216;28;20128;-56
2021/09/11 05:01:30;;;;;;;6.00;5.38;;;22.60;74.40;;;;;;10413927;28;20037;-56
2021/09/11 05:06:31;;;;;;;6.68;5.13;;;22.60;74.20;;;;;;10409844;28;20142;-56
2021/09/11 05:11:32;;;;;;;7.07;4.95;;;22.60;74.20;;;;;;10413093;28;20033;-56
2021/09/11 05:16:33;;;;;;;7.00;4.85;;;22.60;74.60;;;;;;10415826;28;20029;-57
2021/09/11 05:21:33;;;;;;;6.22;4.72;;;22.60;74.20;;;;;;10421397;28;20037;-56
2021/09/11 05:26:34;;;;;;;7.40;4.95;;;22.60;74.10;;;;;;10415017;28;20040;-56
2021/09/11 05:31:35;;;;;;;9.55;5.28;;;22.60;74.70;;;;;;10407403;28;20047;-53
2021/09/11 05:36:35;;;;;;;6.53;5.10;;;22.70;74.60;;;;;;10414100;28;20030;-55
2021/09/11 05:41:36;;;;;;;9.95;4.38;;;22.70;74.70;;;;;;10415721;28;20037;-57
2021/09/11 05:46:37;;;;;;;5.95;4.60;;;22.70;75.10;;;;;;10414186;28;20526;-56
2021/09/11 05:51:37;;;;;;;8.63;4.88;;;22.80;75.00;;;;;;10415024;28;20032;-56
2021/09/11 05:56:38;;;;;;;12.00;5.07;;;22.80;75.10;;;;;;10415302;28;20059;-56
2021/09/11 06:01:41;;;;;;;8.43;4.80;;;22.80;75.30;;;;;;10414508;28;20410;-55
2021/09/11 06:06:42;;;;;;;10.02;5.03;;;22.80;75.10;;;;;;10414252;28;20469;-55
2021/09/11 06:11:43;;;;;;;9.10;3.95;;;22.70;74.80;;;;;;10414214;28;20080;-55
2021/09/11 06:16:43;;;;;;;11.98;4.65;;;22.70;74.80;;;;;;10414483;28;20060;-57
2021/09/11 06:21:44;;;;;;;14.18;5.68;;;22.70;75.00;;;;;;10416338;28;20049;-58
2021/09/11 06:26:45;;;;;;;22.35;5.82;;;22.70;75.10;;;;;;10413620;28;20355;-58
2021/09/11 06:31:45;;;;;;;24.75;6.15;;;22.70;74.90;;;;;;10413436;28;20034;-57
2021/09/11 06:36:46;;;;;;;27.50;6.03;;;22.80;75.40;;;;;;10413130;28;20029;-57
2021/09/11 06:41:47;;;;;;;15.38;5.75;;;22.80;75.10;;;;;;10412816;28;20453;-61
2021/09/11 06:46:47;;;;;;;19.00;5.47;;;22.70;74.90;;;;;;10413296;28;20029;-57
2021/09/11 06:51:48;;;;;;;16.90;6.13;;;22.80;75.20;;;;;;10413143;28;20034;-56
2021/09/11 06:56:49;;;;;;;23.38;5.65;;;22.70;74.80;;;;;;10412343;28;20096;-57
2021/09/11 07:01:49;;;;;;;15.63;5.15;;;22.70;74.90;;;;;;10412907;28;20493;-57
2021/09/11 07:06:50;;;;;;;10.73;5.43;;;22.70;74.70;;;;;;10403765;28;20128;-58
2021/09/11 07:11:51;;;;;;;15.27;5.32;;;22.70;74.60;;;;;;10412627;28;20113;-55
2021/09/11 07:16:51;;;;;;;8.68;5.38;;;22.70;74.80;;;;;;10411259;28;20120;-58
2021/09/11 07:21:52;;;;;;;9.20;4.50;;;22.70;74.60;;;;;;10422184;28;20053;-57
2021/09/11 07:26:53;;;;;;;10.90;5.30;;;22.60;74.60;;;;;;10415106;28;20087;-57
2021/09/11 07:31:53;;;;;;;9.98;5.22;;;22.70;74.60;;;;;;10419029;28;20034;-57
2021/09/11 07:36:54;;;;;;;8.77;4.90;;;22.70;74.60;;;;;;10418869;28;20116;-57
2021/09/11 07:41:55;;;;;;;12.10;5.32;;;22.60;74.60;;;;;;10419352;28;20073;-57
2021/09/11 07:46:55;;;;;;;7.72;5.07;;;22.60;74.60;;;;;;10419179;28;20111;-57
2021/09/11 07:51:56;;;;;;;9.00;4.80;;;22.60;74.50;;;;;;10419418;28;20112;-57
2021/09/11 07:56:57;;;;;;;7.97;4.55;;;22.60;74.60;;;;;;10418613;28;20052;-57
2021/09/11 08:01:57;;;;;;;9.48;4.55;;;22.60;74.50;;;;;;10419791;28;20065;-57
2021/09/11 08:06:58;;;;;;;7.55;5.05;;;22.60;74.60;;;;;;10419674;28;20537;-57
2021/09/11 08:11:59;;;;;;;7.53;4.57;;;22.60;74.50;;;;;;10419350;28;20493;-57
2021/09/11 08:17:01;;;;;;;6.40;4.38;;;22.60;74.50;;;;;;10419488;28;20124;-57
2021/09/11 08:22:01;;;;;;;6.40;4.22;;;22.60;74.50;;;;;;10425897;28;20025;-57
2021/09/11 08:27:02;;;;;;;7.72;4.30;;;22.60;74.50;;;;;;10418702;28;20109;-57
2021/09/11 08:32:03;;;;;;;8.65;4.80;;;22.60;74.40;;;;;;10418414;28;20080;-57
2021/09/11 08:37:04;;;;;;;6.05;5.32;;;22.60;74.50;;;;;;10417490;28;20490;-57
2021/09/11 08:42:05;;;;;;;8.02;4.97;;;22.60;74.50;;;;;;10417144;28;20080;-57
2021/09/11 08:47:06;;;;;;;9.07;4.50;;;22.60;74.40;;;;;;10416922;28;20378;-58
2021/09/11 08:52:08;;;;;;;6.28;4.95;;;22.60;74.40;;;;;;10416438;28;20075;-57
2021/09/11 08:57:27;;;;;;;6.47;4.90;;;22.50;74.40;;;;;;10417153;28;20087;-57
2021/09/11 09:02:27;;;;;;;5.90;4.93;;;22.50;74.20;;;;;;10418113;28;20029;-57
2021/09/11 09:07:40;;;;;;;6.50;4.63;;;22.60;74.40;;;;;;10415975;28;20069;-57
2021/09/11 09:12:45;;;;;;;4.75;3.80;;;22.60;74.40;;;;;;10411507;28;20033;-54
2021/09/11 09:17:50;;;;;;;8.73;5.63;;;22.50;74.20;;;;;;10406015;28;20029;-54
2021/09/11 09:23:13;;;;;;;7.32;5.85;;;22.50;74.40;;;;;;10417749;28;20383;-55
2021/09/11 09:28:15;;;;;;;6.90;5.53;;;22.50;74.20;;;;;;10429690;28;20026;-56
2021/09/11 09:33:30;;;;;;;6.97;5.93;;;22.50;74.40;;;;;;10416558;28;20024;-56
2021/09/11 09:38:31;;;;;;;7.05;5.40;;;22.50;74.40;;;;;;10413777;28;20045;-56
2021/09/11 09:43:40;;;;;;;7.10;5.88;;;22.50;74.40;;;;;;10413034;28;20457;-56
2021/09/11 09:48:44;;;;;;;7.85;5.15;;;22.50;74.30;;;;;;10407037;28;20429;-46
2021/09/11 09:53:51;;;;;;;8.77;7.15;;;22.50;74.40;;;;;;10411924;28;20079;-48
2021/09/11 09:58:53;;;;;;;9.00;8.05;;;22.50;75.20;;;;;;10412807;28;20423;-50
2021/09/11 10:03:54;;;;;;;7.85;7.03;;;22.50;74.90;;;;;;10410587;28;20029;-52
2021/09/11 10:09:05;;;;;;;11.07;9.13;;;22.50;74.50;;;;;;10413195;28;20025;-49
2021/09/11 10:14:14;;;;;;;21.63;11.45;;;22.40;74.60;;;;;;10413767;28;20028;-50
2021/09/11 10:19:20;;;;;;;19.05;9.27;;;22.50;75.00;;;;;;10421228;28;20071;-53
2021/09/11 10:24:22;;;;;;;23.58;10.13;;;22.50;75.20;;;;;;10410997;28;20056;-50
2021/09/11 10:29:33;;;;;;;26.50;10.85;;;22.60;75.30;;;;;;10427693;28;20033;-46
2021/09/11 10:34:47;;;;;;;22.02;10.40;;;22.60;75.10;;;;;;10414529;28;20033;-47
2021/09/11 10:40:25;;;;;;;22.80;10.18;;;22.60;75.40;;;;;;10412865;28;20033;-51
2021/09/11 10:45:54;;;;;;;27.15;11.13;;;22.60;75.50;;;;;;10422672;28;20042;-48
2021/09/11 10:50:54;;;;;;;23.40;11.23;;;22.70;75.90;;;;;;10414762;28;20033;-49
2021/09/11 10:55:55;;;;;;;25.42;10.43;;;22.70;76.20;;;;;;10422226;28;20036;-52
2021/09/11 11:01:01;;;;;;;33.92;11.75;;;22.70;76.00;;;;;;10422253;28;20014;-47
2021/09/11 11:06:06;;;;;;;25.23;11.60;;;22.70;76.00;;;;;;10422206;28;20033;-47
2021/09/11 11:11:06;;;;;;;23.23;11.32;;;22.70;76.00;;;;;;10421563;28;20025;-47
2021/09/11 11:16:07;;;;;;;16.38;9.60;;;22.70;75.80;;;;;;10419626;28;20108;-50
2021/09/11 11:21:08;;;;;;;16.48;10.27;;;22.70;75.40;;;;;;10422862;28;20056;-46
2021/09/11 11:26:09;;;;;;;16.08;9.77;;;22.70;75.40;;;;;;10421447;28;20116;-46
2021/09/11 11:31:14;;;;;;;15.73;8.82;;;22.70;75.50;;;;;;10421501;28;20025;-48
2021/09/11 11:36:20;;;;;;;18.15;10.57;;;22.70;75.40;;;;;;10421408;28;20451;-46
2021/09/11 11:41:23;;;;;;;14.00;10.05;;;22.70;75.30;;;;;;10420836;28;20029;-48
2021/09/11 11:46:28;;;;;;;14.82;10.60;;;22.70;75.10;;;;;;10419179;28;20383;-49
2021/09/11 11:51:29;;;;;;;16.77;10.27;;;22.70;75.10;;;;;;10402787;28;20021;-50
2021/09/11 11:56:30;;;;;;;15.73;11.68;;;22.70;74.90;;;;;;10419934;28;20354;-47
2021/09/11 12:01:30;;;;;;;14.98;11.07;;;22.70;74.40;;;;;;10419428;28;20108;-48
2021/09/11 12:06:31;;;;;;;15.35;11.27;;;22.70;74.60;;;;;;10419091;28;20441;-49
2021/09/11 12:11:32;;;;;;;15.15;11.75;;;22.60;73.80;;;;;;10418760;28;20021;-48
2021/09/11 12:16:33;;;;;;;13.27;9.98;;;22.60;73.50;;;;;;10418344;28;20120;-47
2021/09/11 12:21:34;;;;;;;14.32;9.98;;;22.60;73.10;;;;;;10421480;28;20083;-47
2021/09/11 12:26:38;;;;;;;12.02;9.02;;;22.60;72.80;;;;;;10417939;28;20029;-47
2021/09/11 12:31:40;;;;;;;13.38;9.85;;;22.60;73.00;;;;;;10418704;28;20036;-48
2021/09/11 12:36:43;;;;;;;10.00;8.63;;;22.60;72.60;;;;;;10418683;28;20444;-48
2021/09/11 12:41:49;;;;;;;9.55;8.32;;;22.60;72.60;;;;;;10418395;28;20029;-47
2021/09/11 12:46:56;;;;;;;12.38;9.43;;;22.60;72.80;;;;;;10418162;28;20025;-48
2021/09/11 12:51:58;;;;;;;10.40;9.30;;;22.60;73.10;;;;;;10417610;28;20100;-46
2021/09/11 12:56:59;;;;;;;9.23;8.27;;;22.60;73.30;;;;;;10416488;28;20029;-47
2021/09/11 13:01:59;;;;;;;10.82;9.60;;;22.60;73.50;;;;;;10416229;28;20032;-47
2021/09/11 13:07:00;;;;;;;8.55;7.38;;;22.60;73.60;;;;;;10417010;28;20079;-48
2021/09/11 13:12:02;;;;;;;13.48;9.48;;;22.60;73.60;;;;;;10416898;28;20048;-50
2021/09/11 13:17:05;;;;;;;12.82;8.45;;;22.60;74.20;;;;;;10415112;28;20465;-49
2021/09/11 13:22:05;;;;;;;10.10;9.07;;;22.60;73.70;;;;;;10421327;28;20116;-50
2021/09/11 13:27:06;;;;;;;11.15;7.80;;;22.70;73.80;;;;;;10414091;28;20120;-49
2021/09/11 13:32:07;;;;;;;9.60;8.00;;;22.70;73.90;;;;;;10414092;28;20025;-48
2021/09/11 13:37:07;;;;;;;10.45;8.60;;;22.60;73.90;;;;;;10413260;28;20037;-50
2021/09/11 13:42:08;;;;;;;8.85;7.45;;;22.60;74.00;;;;;;10413559;28;20088;-47
2021/09/11 13:47:09;;;;;;;10.35;8.35;;;22.60;74.00;;;;;;10425163;28;20468;-49
2021/09/11 13:52:10;;;;;;;12.27;8.18;;;22.60;74.30;;;;;;10414150;28;20504;-47
2021/09/11 13:57:10;;;;;;;12.70;8.93;;;22.60;74.30;;;;;;10415336;28;20044;-49
2021/09/11 14:02:11;;;;;;;8.95;7.95;;;22.60;74.40;;;;;;10415457;28;20104;-49
2021/09/11 14:07:12;;;;;;;10.82;8.82;;;22.60;74.50;;;;;;10414964;28;20057;-51
2021/09/11 14:12:12;;;;;;;8.93;8.02;;;22.60;74.10;;;;;;10415110;28;20072;-47
2021/09/11 14:17:13;;;;;;;8.30;7.47;;;22.60;74.40;;;;;;10414726;28;20385;-51
2021/09/11 14:22:14;;;;;;;9.55;8.57;;;22.60;74.60;;;;;;10417536;28;20059;-48
2021/09/11 14:27:15;;;;;;;8.75;7.82;;;22.60;74.70;;;;;;10414498;28;20470;-49
2021/09/11 14:32:18;;;;;;;9.07;8.18;;;22.60;74.70;;;;;;10414524;28;20037;-51
2021/09/11 14:37:18;;;;;;;9.00;7.93;;;22.50;74.60;;;;;;10414311;28;20382;-50
2021/09/11 14:42:19;;;;;;;8.55;7.47;;;22.60;74.60;;;;;;10412961;28;20057;-49
2021/09/11 14:47:20;;;;;;;8.73;7.82;;;22.50;74.50;;;;;;10413985;28;20444;-48
2021/09/11 14:52:21;;;;;;;8.93;7.80;;;22.60;74.70;;;;;;10412850;28;20042;-50
2021/09/11 14:57:23;;;;;;;8.50;7.35;;;22.60;74.60;;;;;;10413961;28;20466;-47
2021/09/11 15:02:27;;;;;;;8.70;7.85;;;22.50;74.60;;;;;;10412870;28;20117;-49
2021/09/11 15:07:30;;;;;;;8.85;7.85;;;22.50;74.60;;;;;;10413853;28;20387;-48
2021/09/11 15:12:32;;;;;;;9.18;7.43;;;22.60;74.70;;;;;;10413416;28;20125;-49
2021/09/11 15:17:34;;;;;;;8.82;7.60;;;22.60;74.70;;;;;;10413530;28;20477;-50
2021/09/11 15:22:39;;;;;;;7.82;7.03;;;22.50;74.70;;;;;;10419918;28;20040;-51
2021/09/11 15:27:41;;;;;;;7.60;6.80;;;22.60;74.80;;;;;;10413270;28;20029;-52
2021/09/11 15:32:43;;;;;;;8.75;7.68;;;22.60;74.80;;;;;;10413247;28;20397;-53
2021/09/11 15:37:45;;;;;;;8.27;7.47;;;22.60;74.80;;;;;;10414236;28;20049;-50
2021/09/11 15:42:46;;;;;;;7.75;6.95;;;22.60;74.90;;;;;;10403062;28;20426;-48
2021/09/11 15:47:46;;;;;;;7.75;7.05;;;22.50;74.80;;;;;;10420346;28;20083;-52
2021/09/11 15:52:47;;;;;;;7.97;7.13;;;22.50;74.90;;;;;;10420735;28;20065;-49
2021/09/11 15:57:48;;;;;;;7.78;7.05;;;22.50;74.90;;;;;;10419914;28;20040;-49
2021/09/11 16:02:49;;;;;;;7.80;7.03;;;22.60;74.90;;;;;;10416224;28;20421;-50
2021/09/11 16:07:50;;;;;;;8.55;6.10;;;22.50;74.90;;;;;;10406416;28;20108;-54
2021/09/11 16:12:51;;;;;;;99.40;56.47;;;22.60;75.10;;;;;;10391515;28;20112;-53
2021/09/11 16:17:52;;;;;;;64.82;29.83;;;22.70;75.20;;;;;;10418247;28;20108;-54
2021/09/11 16:22:53;;;;;;;54.70;23.80;;;22.80;75.50;;;;;;10417487;28;20033;-54
2021/09/11 16:27:54;;;;;;;36.58;18.88;;;22.80;75.70;;;;;;10418856;28;20478;-54
2021/09/11 16:32:55;;;;;;;31.58;16.92;;;22.80;75.40;;;;;;10418198;28;20028;-54
2021/09/11 16:37:55;;;;;;;27.00;14.43;;;22.90;76.40;;;;;;10419024;28;20448;-50
2021/09/11 16:42:56;;;;;;;30.08;11.88;;;22.90;76.50;;;;;;10418215;28;20406;-52
2021/09/11 16:47:58;;;;;;;20.25;10.50;;;22.90;76.40;;;;;;10418035;28;20029;-54
2021/09/11 16:52:58;;;;;;;16.70;8.80;;;22.90;76.00;;;;;;10416979;28;20104;-48
2021/09/11 16:58:00;;;;;;;18.05;8.18;;;23.00;75.70;;;;;;10418023;28;20120;-54
2021/09/11 17:03:00;;;;;;;17.08;7.45;;;22.90;75.40;;;;;;10418018;28;20470;-47
2021/09/11 17:08:06;;;;;;;14.10;6.63;;;23.00;75.30;;;;;;10416820;28;20088;-50
2021/09/11 17:13:07;;;;;;;13.23;6.30;;;22.90;75.00;;;;;;10417249;28;20034;-51
2021/09/11 17:18:08;;;;;;;11.70;6.05;;;22.80;74.80;;;;;;10416657;28;20037;-52
2021/09/11 17:23:09;;;;;;;11.07;5.82;;;22.80;74.80;;;;;;10414519;28;20474;-50
2021/09/11 17:28:10;;;;;;;9.98;5.40;;;22.80;74.70;;;;;;10415077;28;20040;-54
2021/09/11 17:33:10;;;;;;;9.48;5.55;;;22.80;74.70;;;;;;10413962;28;20060;-53
2021/09/11 17:38:11;;;;;;;9.02;5.63;;;22.80;74.70;;;;;;10413536;28;20033;-51
2021/09/11 17:43:12;;;;;;;11.32;5.97;;;22.80;74.70;;;;;;10414290;28;20098;-53
2021/09/11 17:48:12;;;;;;;12.77;5.20;;;22.80;75.00;;;;;;10415688;28;20033;-55
2021/09/11 17:53:13;;;;;;;13.98;5.47;;;22.80;75.30;;;;;;10415635;28;20104;-56
2021/09/11 17:58:15;;;;;;;11.13;6.05;;;22.80;75.60;;;;;;10414543;28;20037;-56
2021/09/11 18:03:17;;;;;;;9.07;5.63;;;22.80;75.20;;;;;;10414107;28;20068;-55
2021/09/11 18:08:17;;;;;;;8.45;5.13;;;22.80;75.20;;;;;;10394259;28;20584;-56
2021/09/11 18:13:18;;;;;;;9.45;5.68;;;22.80;75.20;;;;;;10410422;28;20017;-57
2021/09/11 18:18:23;;;;;;;6.47;4.90;;;22.80;75.30;;;;;;10414123;28;20029;-56
2021/09/11 18:23:24;;;;;;;9.20;5.45;;;22.70;75.20;;;;;;10410578;28;20021;-55
2021/09/11 18:28:24;;;;;;;10.55;5.38;;;22.80;75.60;;;;;;10413391;28;20035;-55
2021/09/11 18:33:25;;;;;;;10.73;5.40;;;22.70;75.60;;;;;;10412943;28;20017;-56
2021/09/11 18:38:26;;;;;;;9.70;5.10;;;22.70;75.70;;;;;;10412971;28;20039;-55
2021/09/11 18:43:26;;;;;;;10.05;4.93;;;22.70;75.70;;;;;;10412387;28;20068;-56
2021/09/11 18:48:27;;;;;;;14.68;5.93;;;22.70;75.70;;;;;;10412888;28;20068;-55
2021/09/11 18:53:28;;;;;;;8.80;5.22;;;22.70;75.70;;;;;;10412946;28;20113;-53
2021/09/11 18:58:29;;;;;;;10.85;5.32;;;22.70;75.80;;;;;;10412066;28;20546;-56
2021/09/11 19:03:30;;;;;;;8.75;4.85;;;22.70;75.60;;;;;;10411800;28;20508;-55
2021/09/11 19:08:33;;;;;;;8.27;4.88;;;22.70;75.60;;;;;;10410912;28;20040;-54
2021/09/11 19:13:34;;;;;;;8.90;5.70;;;22.70;75.60;;;;;;10413899;28;20025;-56
2021/09/11 19:18:36;;;;;;;8.85;5.70;;;22.70;75.60;;;;;;10424338;28;20063;-56
2021/09/11 19:23:37;;;;;;;9.10;5.88;;;22.70;75.60;;;;;;10420906;28;20055;-56
2021/09/11 19:28:38;;;;;;;7.32;4.97;;;22.70;75.60;;;;;;10417000;28;20401;-56
2021/09/11 19:33:38;;;;;;;8.13;5.35;;;22.60;75.50;;;;;;10418488;28;20076;-56
2021/09/11 19:38:41;;;;;;;7.00;5.43;;;22.60;75.50;;;;;;10420867;28;20067;-55
2021/09/11 19:43:44;;;;;;;6.95;5.28;;;22.60;75.50;;;;;;10411223;28;20367;-55
2021/09/11 19:48:45;;;;;;;7.93;5.57;;;22.60;75.50;;;;;;10420750;28;20029;-55
2021/09/11 19:53:46;;;;;;;8.20;5.45;;;22.60;75.50;;;;;;10420535;28;20026;-55
2021/09/11 19:58:46;;;;;;;5.85;4.97;;;22.60;75.50;;;;;;10419931;28;20032;-55
2021/09/11 20:03:47;;;;;;;8.98;5.75;;;22.60;75.50;;;;;;10419829;28;20071;-55
2021/09/11 20:08:48;;;;;;;6.63;5.30;;;22.60;75.50;;;;;;10418618;28;20080;-52
2021/09/11 20:13:49;;;;;;;7.97;5.10;;;22.50;75.40;;;;;;10419825;28;20036;-55
2021/09/11 20:18:49;;;;;;;7.25;4.90;;;22.50;75.40;;;;;;10424741;28;20052;-55
2021/09/11 20:23:50;;;;;;;6.43;4.85;;;22.50;75.40;;;;;;10420337;28;20044;-54
2021/09/11 20:28:51;;;;;;;6.90;4.75;;;22.50;75.40;;;;;;10419000;28;20072;-55
2021/09/11 20:33:52;;;;;;;6.60;5.28;;;22.50;75.40;;;;;;10417847;28;20538;-56
2021/09/11 20:38:53;;;;;;;9.35;5.18;;;22.50;75.40;;;;;;10418755;28;20053;-55
2021/09/11 20:43:54;;;;;;;7.95;5.72;;;22.50;75.40;;;;;;10418515;28;20465;-55
2021/09/11 20:48:55;;;;;;;7.53;5.05;;;22.50;75.40;;;;;;10418043;28;20025;-56
2021/09/11 20:53:55;;;;;;;7.97;5.25;;;22.50;75.40;;;;;;10416996;28;20037;-55
2021/09/11 20:58:56;;;;;;;7.10;5.22;;;22.50;75.40;;;;;;10416758;28;20113;-56
2021/09/11 21:03:58;;;;;;;7.55;6.22;;;22.50;75.40;;;;;;10417597;28;20529;-53
2021/09/11 21:08:59;;;;;;;6.78;5.50;;;22.50;75.40;;;;;;10417708;28;20034;-56
2021/09/11 21:14:00;;;;;;;6.30;5.47;;;22.50;75.30;;;;;;10417165;28;20163;-53
2021/09/11 21:19:00;;;;;;;7.43;4.97;;;22.50;75.30;;;;;;10417200;28;20477;-56
2021/09/11 21:24:02;;;;;;;8.15;5.53;;;22.50;75.40;;;;;;10416881;28;20044;-54
2021/09/11 21:29:03;;;;;;;5.95;4.47;;;22.50;75.40;;;;;;10416164;28;20446;-56
2021/09/11 21:34:03;;;;;;;9.32;5.32;;;22.50;75.40;;;;;;10416697;28;20112;-54
2021/09/11 21:39:04;;;;;;;6.63;5.30;;;22.50;75.40;;;;;;10415553;28;20061;-56
2021/09/11 21:44:05;;;;;;;7.38;5.30;;;22.50;75.40;;;;;;10416023;28;20386;-55
2021/09/11 21:49:05;;;;;;;7.05;5.20;;;22.50;75.30;;;;;;10415637;28;20044;-55
2021/09/11 21:54:06;;;;;;;6.20;5.47;;;22.50;75.40;;;;;;10415456;28;20079;-56
2021/09/11 21:59:07;;;;;;;6.55;4.82;;;22.40;75.30;;;;;;10415502;28;20430;-55
2021/09/11 22:04:08;;;;;;;6.32;5.50;;;22.50;75.50;;;;;;10414385;28;20117;-55
2021/09/11 22:09:09;;;;;;;6.00;5.43;;;22.50;75.30;;;;;;10413926;28;20036;-54
2021/09/11 22:14:09;;;;;;;7.55;5.57;;;22.40;75.40;;;;;;10414637;28;20144;-55
2021/09/11 22:19:11;;;;;;;7.03;5.38;;;22.50;75.40;;;;;;10421556;28;20120;-54
2021/09/11 22:24:12;;;;;;;6.35;4.93;;;22.40;75.40;;;;;;10413575;28;20043;-53
2021/09/11 22:29:12;;;;;;;5.85;5.25;;;22.40;75.90;;;;;;10413732;28;20493;-55
2021/09/11 22:34:13;;;;;;;7.47;5.38;;;22.40;75.30;;;;;;10414417;28;20028;-54
2021/09/11 22:39:14;;;;;;;6.90;5.47;;;22.40;75.30;;;;;;10414280;28;20032;-54
2021/09/11 22:44:17;;;;;;;5.32;4.53;;;22.40;75.20;;;;;;10412396;28;20056;-54
2021/09/11 22:49:18;;;;;;;5.70;4.90;;;22.40;75.20;;;;;;10423453;28;20045;-53
2021/09/11 22:54:19;;;;;;;5.22;4.72;;;22.40;75.20;;;;;;10427793;28;20461;-54
2021/09/11 22:59:19;;;;;;;7.68;5.28;;;22.40;75.10;;;;;;10427863;28;20100;-56
2021/09/11 23:04:20;;;;;;;5.60;4.50;;;22.40;75.10;;;;;;10427750;28;20076;-55
2021/09/11 23:09:21;;;;;;;6.80;5.38;;;22.40;75.00;;;;;;10427250;28;20061;-54
2021/09/11 23:14:21;;;;;;;6.32;4.72;;;22.40;75.10;;;;;;10425883;28;20021;-53
2021/09/11 23:19:23;;;;;;;6.07;4.93;;;22.40;75.30;;;;;;10433359;28;20117;-53
2021/09/11 23:24:23;;;;;;;6.25;4.60;;;22.40;75.20;;;;;;10427095;28;20033;-55
2021/09/11 23:29:24;;;;;;;5.40;4.03;;;22.40;75.20;;;;;;10427284;28;20040;-54
2021/09/11 23:34:25;;;;;;;5.82;4.47;;;22.40;75.10;;;;;;10426082;28;20410;-54
2021/09/11 23:39:25;;;;;;;5.55;4.70;;;22.30;75.00;;;;;;10425841;28;20124;-53
2021/09/11 23:44:26;;;;;;;4.88;3.97;;;22.30;75.00;;;;;;10426393;28;20046;-55
2021/09/11 23:49:27;;;;;;;5.55;4.38;;;22.30;75.00;;;;;;10426824;28;20034;-55
2021/09/11 23:54:27;;;;;;;5.45;3.80;;;22.30;75.00;;;;;;10426859;28;20036;-55
2021/09/11 23:59:28;;;;;;;8.70;4.00;;;22.30;75.00;;;;;;10423226;28;20482;-54
